sensor_id;sensor_type;location;lat;lon;timestamp;temperature;humidity
55329;DHT22;41205;44.264;19.884;2024-01-07T00:01:36;307.20;2304.00
55329;DHT22;41205;44.264;19.884;2024-01-07T00:04:01;307.20;2304.00
55329;DHT22;41205;44.264;19.884;2024-01-07T00:06:27;307.30;2304.00
55329;DHT22;41205;44.264;19.884;2024-01-07T00:08:53;307.30;2304.00
55329;DHT22;41205;44.264;19.884;2024-01-07T00:11:19;307.30;2304.00
55329;DHT22;41205;44.264;19.884;2024-01-07T00:13:45;307.30;2304.00
55329;DHT22;41205;44.264;19.884;2024-01-07T00:16:11;307.30;2304.00
55329;DHT22;41205;44.264;19.884;2024-01-07T00:18:37;307.40;2304.00
55329;DHT22;41205;44.264;19.884;2024-01-07T00:21:03;307.40;2304.00
55329;DHT22;41205;44.264;19.884;2024-01-07T00:23:28;307.50;2304.00
55329;DHT22;41205;44.264;19.884;2024-01-07T00:25:54;307.80;2304.00
55329;DHT22;41205;44.264;19.884;2024-01-07T00:28:20;307.60;2304.00
55329;DHT22;41205;44.264;19.884;2024-01-07T00:30:46;307.60;2304.00
55329;DHT22;41205;44.264;19.884;2024-01-07T00:33:12;307.60;2304.00
55329;DHT22;41205;44.264;19.884;2024-01-07T00:35:37;307.60;2304.00
55329;DHT22;41205;44.264;19.884;2024-01-07T00:38:03;307.60;2304.00
55329;DHT22;41205;44.264;19.884;2024-01-07T00:40:29;307.60;2304.00
55329;DHT22;41205;44.264;19.884;2024-01-07T00:42:55;307.60;2304.00
55329;DHT22;41205;44.264;19.884;2024-01-07T00:45:21;307.60;2304.00
55329;DHT22;41205;44.264;19.884;2024-01-07T00:47:47;307.70;2304.00
55329;DHT22;41205;44.264;19.884;2024-01-07T00:50:13;307.70;2304.00
55329;DHT22;41205;44.264;19.884;2024-01-07T00:52:38;307.70;2304.00
55329;DHT22;41205;44.264;19.884;2024-01-07T00:55:06;307.60;2304.00
55329;DHT22;41205;44.264;19.884;2024-01-07T00:57:33;307.60;2304.00
55329;DHT22;41205;44.264;19.884;2024-01-07T01:00:00;307.60;2304.00
55329;DHT22;41205;44.264;19.884;2024-01-07T01:02:25;307.70;2304.00
55329;DHT22;41205;44.264;19.884;2024-01-07T01:04:51;307.60;2304.00
55329;DHT22;41205;44.264;19.884;2024-01-07T01:07:17;307.60;2304.00
55329;DHT22;41205;44.264;19.884;2024-01-07T01:09:43;307.50;2304.00
55329;DHT22;41205;44.264;19.884;2024-01-07T01:12:09;307.50;2304.00
55329;DHT22;41205;44.264;19.884;2024-01-07T01:14:34;307.60;2304.00
55329;DHT22;41205;44.264;19.884;2024-01-07T01:17:00;307.60;2304.00
55329;DHT22;41205;44.264;19.884;2024-01-07T01:19:26;307.60;2304.00
55329;DHT22;41205;44.264;19.884;2024-01-07T01:21:51;307.60;2304.00
55329;DHT22;41205;44.264;19.884;2024-01-07T01:24:17;307.60;2304.00
55329;DHT22;41205;44.264;19.884;2024-01-07T01:26:43;307.60;2304.00
55329;DHT22;41205;44.264;19.884;2024-01-07T01:29:09;307.60;2304.00
55329;DHT22;41205;44.264;19.884;2024-01-07T01:31:34;307.60;2304.00
55329;DHT22;41205;44.264;19.884;2024-01-07T01:34:00;307.60;2304.00
55329;DHT22;41205;44.264;19.884;2024-01-07T01:36:26;307.60;2304.00
55329;DHT22;41205;44.264;19.884;2024-01-07T01:38:52;307.60;2304.00
55329;DHT22;41205;44.264;19.884;2024-01-07T01:41:18;307.50;2304.00
55329;DHT22;41205;44.264;19.884;2024-01-07T01:43:43;307.60;2304.00
55329;DHT22;41205;44.264;19.884;2024-01-07T01:46:09;307.50;2304.00
55329;DHT22;41205;44.264;19.884;2024-01-07T01:48:38;307.40;2304.00
55329;DHT22;41205;44.264;19.884;2024-01-07T01:51:04;307.30;2304.00
55329;DHT22;41205;44.264;19.884;2024-01-07T01:53:31;307.30;2304.00
55329;DHT22;41205;44.264;19.884;2024-01-07T01:55:58;307.40;2304.00
55329;DHT22;41205;44.264;19.884;2024-01-07T01:58:25;307.40;2304.00
55329;DHT22;41205;44.264;19.884;2024-01-07T02:00:51;307.40;2304.00
55329;DHT22;41205;44.264;19.884;2024-01-07T02:03:18;307.40;2304.00
55329;DHT22;41205;44.264;19.884;2024-01-07T02:05:44;307.30;2304.00
55329;DHT22;41205;44.264;19.884;2024-01-07T02:08:11;307.30;2304.00
55329;DHT22;41205;44.264;19.884;2024-01-07T02:10:37;307.20;2304.00
55329;DHT22;41205;44.264;19.884;2024-01-07T02:13:03;282.40;2278.40
55329;DHT22;41205;44.264;19.884;2024-01-07T02:15:30;282.30;2278.40
55329;DHT22;41205;44.264;19.884;2024-01-07T02:17:56;282.30;2278.40
55329;DHT22;41205;44.264;19.884;2024-01-07T02:20:22;282.30;2278.40
55329;DHT22;41205;44.264;19.884;2024-01-07T02:22:47;282.20;2278.40
55329;DHT22;41205;44.264;19.884;2024-01-07T02:25:13;282.40;2278.40
55329;DHT22;41205;44.264;19.884;2024-01-07T02:27:39;282.50;2278.40
55329;DHT22;41205;44.264;19.884;2024-01-07T02:30:05;282.50;2278.40
55329;DHT22;41205;44.264;19.884;2024-01-07T02:32:31;282.50;2278.40
55329;DHT22;41205;44.264;19.884;2024-01-07T02:35:00;282.50;2278.40
55329;DHT22;41205;44.264;19.884;2024-01-07T02:37:26;307.20;2304.00
55329;DHT22;41205;44.264;19.884;2024-01-07T02:39:51;307.20;2304.00
55329;DHT22;41205;44.264;19.884;2024-01-07T02:42:17;307.30;2304.00
55329;DHT22;41205;44.264;19.884;2024-01-07T02:44:43;307.30;2304.00
55329;DHT22;41205;44.264;19.884;2024-01-07T02:47:09;307.40;2304.00
55329;DHT22;41205;44.264;19.884;2024-01-07T02:49:35;307.40;2304.00
55329;DHT22;41205;44.264;19.884;2024-01-07T02:52:00;307.40;2304.00
55329;DHT22;41205;44.264;19.884;2024-01-07T02:54:26;307.40;2304.00
55329;DHT22;41205;44.264;19.884;2024-01-07T02:56:52;307.40;2304.00
55329;DHT22;41205;44.264;19.884;2024-01-07T02:59:18;307.30;2304.00
55329;DHT22;41205;44.264;19.884;2024-01-07T03:01:43;307.40;2304.00
55329;DHT22;41205;44.264;19.884;2024-01-07T03:04:12;307.40;2304.00
55329;DHT22;41205;44.264;19.884;2024-01-07T03:06:38;307.40;2304.00
55329;DHT22;41205;44.264;19.884;2024-01-07T03:09:03;307.30;2304.00
55329;DHT22;41205;44.264;19.884;2024-01-07T03:11:29;307.30;2304.00
55329;DHT22;41205;44.264;19.884;2024-01-07T03:13:56;307.30;2304.00
55329;DHT22;41205;44.264;19.884;2024-01-07T03:16:22;307.30;2304.00
55329;DHT22;41205;44.264;19.884;2024-01-07T03:18:48;307.30;2304.00
55329;DHT22;41205;44.264;19.884;2024-01-07T03:21:22;307.40;2304.00
55329;DHT22;41205;44.264;19.884;2024-01-07T03:23:49;307.40;2304.00
55329;DHT22;41205;44.264;19.884;2024-01-07T03:26:17;307.30;2304.00
55329;DHT22;41205;44.264;19.884;2024-01-07T03:28:43;307.30;2304.00
55329;DHT22;41205;44.264;19.884;2024-01-07T03:31:11;307.30;2304.00
55329;DHT22;41205;44.264;19.884;2024-01-07T03:33:38;307.30;2304.00
55329;DHT22;41205;44.264;19.884;2024-01-07T03:36:13;307.30;2304.00
55329;DHT22;41205;44.264;19.884;2024-01-07T03:38:40;307.30;2304.00
55329;DHT22;41205;44.264;19.884;2024-01-07T03:41:06;307.20;2304.00
55329;DHT22;41205;44.264;19.884;2024-01-07T03:43:32;307.20;2304.00
55329;DHT22;41205;44.264;19.884;2024-01-07T03:45:58;307.60;2304.00
55329;DHT22;41205;44.264;19.884;2024-01-07T03:48:24;282.50;2278.40
55329;DHT22;41205;44.264;19.884;2024-01-07T03:50:50;282.50;2278.40
55329;DHT22;41205;44.264;19.884;2024-01-07T03:53:16;282.40;2278.40
55329;DHT22;41205;44.264;19.884;2024-01-07T03:55:42;282.30;2278.40
55329;DHT22;41205;44.264;19.884;2024-01-07T03:58:08;282.30;2278.40
55329;DHT22;41205;44.264;19.884;2024-01-07T04:00:34;282.20;2278.40
55329;DHT22;41205;44.264;19.884;2024-01-07T04:03:01;282.30;2278.40
55329;DHT22;41205;44.264;19.884;2024-01-07T04:05:27;282.40;2278.40
55329;DHT22;41205;44.264;19.884;2024-01-07T04:07:54;282.40;2278.40
55329;DHT22;41205;44.264;19.884;2024-01-07T04:10:20;282.30;2278.40
55329;DHT22;41205;44.264;19.884;2024-01-07T04:12:46;282.40;2278.40
55329;DHT22;41205;44.264;19.884;2024-01-07T04:15:12;282.40;2278.40
55329;DHT22;41205;44.264;19.884;2024-01-07T04:17:38;282.20;2278.40
55329;DHT22;41205;44.264;19.884;2024-01-07T04:20:05;282.00;2278.40
55329;DHT22;41205;44.264;19.884;2024-01-07T04:22:31;282.10;2278.40
55329;DHT22;41205;44.264;19.884;2024-01-07T04:24:57;282.00;2278.40
55329;DHT22;41205;44.264;19.884;2024-01-07T04:27:22;281.90;2278.40
55329;DHT22;41205;44.264;19.884;2024-01-07T04:29:50;282.00;2278.40
55329;DHT22;41205;44.264;19.884;2024-01-07T04:32:16;282.00;2278.40
55329;DHT22;41205;44.264;19.884;2024-01-07T04:34:42;282.20;2278.40
55329;DHT22;41205;44.264;19.884;2024-01-07T04:37:07;282.20;2278.40
55329;DHT22;41205;44.264;19.884;2024-01-07T04:39:34;282.30;2278.40
55329;DHT22;41205;44.264;19.884;2024-01-07T04:41:59;282.40;2278.40
55329;DHT22;41205;44.264;19.884;2024-01-07T04:44:25;282.40;2278.40
55329;DHT22;41205;44.264;19.884;2024-01-07T04:46:51;282.50;2278.40
55329;DHT22;41205;44.264;19.884;2024-01-07T04:49:17;307.50;2304.00
55329;DHT22;41205;44.264;19.884;2024-01-07T04:51:42;282.20;2278.40
55329;DHT22;41205;44.264;19.884;2024-01-07T04:54:08;281.90;2278.40
55329;DHT22;41205;44.264;19.884;2024-01-07T04:56:34;281.70;2278.40
55329;DHT22;41205;44.264;19.884;2024-01-07T04:58:59;256.90;2252.80
55329;DHT22;41205;44.264;19.884;2024-01-07T05:01:25;256.80;2252.80
55329;DHT22;41205;44.264;19.884;2024-01-07T05:03:51;256.70;2252.80
55329;DHT22;41205;44.264;19.884;2024-01-07T05:06:17;256.60;2252.80
55329;DHT22;41205;44.264;19.884;2024-01-07T05:08:43;256.70;2252.80
55329;DHT22;41205;44.264;19.884;2024-01-07T05:11:09;256.70;2252.80
55329;DHT22;41205;44.264;19.884;2024-01-07T05:13:35;256.70;2252.80
55329;DHT22;41205;44.264;19.884;2024-01-07T05:16:01;256.60;2252.80
55329;DHT22;41205;44.264;19.884;2024-01-07T05:18:28;256.40;2252.80
55329;DHT22;41205;44.264;19.884;2024-01-07T05:20:54;256.40;2252.80
55329;DHT22;41205;44.264;19.884;2024-01-07T05:23:20;256.50;2252.80
55329;DHT22;41205;44.264;19.884;2024-01-07T05:25:46;256.40;2252.80
55329;DHT22;41205;44.264;19.884;2024-01-07T05:28:13;256.40;2252.80
55329;DHT22;41205;44.264;19.884;2024-01-07T05:30:39;256.40;2252.80
55329;DHT22;41205;44.264;19.884;2024-01-07T05:33:05;256.40;2252.80
55329;DHT22;41205;44.264;19.884;2024-01-07T05:35:31;256.40;2252.80
55329;DHT22;41205;44.264;19.884;2024-01-07T05:37:57;256.50;2252.80
55329;DHT22;41205;44.264;19.884;2024-01-07T05:40:23;256.40;2252.80
55329;DHT22;41205;44.264;19.884;2024-01-07T05:42:49;256.40;2252.80
55329;DHT22;41205;44.264;19.884;2024-01-07T05:45:15;256.40;2252.80
55329;DHT22;41205;44.264;19.884;2024-01-07T05:47:40;256.30;2252.80
55329;DHT22;41205;44.264;19.884;2024-01-07T05:50:07;256.30;2252.80
55329;DHT22;41205;44.264;19.884;2024-01-07T05:52:33;256.40;2252.80
55329;DHT22;41205;44.264;19.884;2024-01-07T05:54:59;256.30;2252.80
55329;DHT22;41205;44.264;19.884;2024-01-07T05:57:25;256.20;2252.80
55329;DHT22;41205;44.264;19.884;2024-01-07T05:59:50;256.20;2252.80
55329;DHT22;41205;44.264;19.884;2024-01-07T06:02:17;256.10;2252.80
55329;DHT22;41205;44.264;19.884;2024-01-07T06:04:43;256.00;2252.80
55329;DHT22;41205;44.264;19.884;2024-01-07T06:07:09;256.00;2252.80
55329;DHT22;41205;44.264;19.884;2024-01-07T06:09:35;231.30;2252.80
55329;DHT22;41205;44.264;19.884;2024-01-07T06:12:01;256.00;2252.80
55329;DHT22;41205;44.264;19.884;2024-01-07T06:14:27;256.00;2252.80
55329;DHT22;41205;44.264;19.884;2024-01-07T06:16:53;231.30;2252.80
55329;DHT22;41205;44.264;19.884;2024-01-07T06:19:18;256.00;2252.80
55329;DHT22;41205;44.264;19.884;2024-01-07T06:21:44;256.00;2252.80
55329;DHT22;41205;44.264;19.884;2024-01-07T06:24:11;256.00;2252.80
55329;DHT22;41205;44.264;19.884;2024-01-07T06:26:37;256.00;2252.80
55329;DHT22;41205;44.264;19.884;2024-01-07T06:29:02;256.00;2252.80
55329;DHT22;41205;44.264;19.884;2024-01-07T06:31:28;231.30;2252.80
55329;DHT22;41205;44.264;19.884;2024-01-07T06:33:54;256.00;2252.80
55329;DHT22;41205;44.264;19.884;2024-01-07T06:36:22;256.00;2252.80
55329;DHT22;41205;44.264;19.884;2024-01-07T06:38:47;231.30;2252.80
55329;DHT22;41205;44.264;19.884;2024-01-07T06:41:14;231.30;2252.80
55329;DHT22;41205;44.264;19.884;2024-01-07T06:43:40;231.30;2252.80
55329;DHT22;41205;44.264;19.884;2024-01-07T06:46:07;231.30;2252.80
55329;DHT22;41205;44.264;19.884;2024-01-07T06:48:33;231.20;2252.80
55329;DHT22;41205;44.264;19.884;2024-01-07T06:50:58;231.30;2252.80
55329;DHT22;41205;44.264;19.884;2024-01-07T06:53:24;256.00;2252.80
55329;DHT22;41205;44.264;19.884;2024-01-07T06:55:50;231.20;2252.80
55329;DHT22;41205;44.264;19.884;2024-01-07T06:58:16;231.20;2252.80
55329;DHT22;41205;44.264;19.884;2024-01-07T07:00:42;231.30;2252.80
55329;DHT22;41205;44.264;19.884;2024-01-07T07:03:08;256.00;2252.80
55329;DHT22;41205;44.264;19.884;2024-01-07T07:05:34;231.30;2252.80
55329;DHT22;41205;44.264;19.884;2024-01-07T07:08:00;231.30;2252.80
55329;DHT22;41205;44.264;19.884;2024-01-07T07:10:25;231.20;2252.80
55329;DHT22;41205;44.264;19.884;2024-01-07T07:12:51;231.10;2252.80
55329;DHT22;41205;44.264;19.884;2024-01-07T07:15:17;231.10;2252.80
55329;DHT22;41205;44.264;19.884;2024-01-07T07:17:43;231.10;2252.80
55329;DHT22;41205;44.264;19.884;2024-01-07T07:20:09;231.20;2252.80
55329;DHT22;41205;44.264;19.884;2024-01-07T07:22:35;231.30;2252.80
55329;DHT22;41205;44.264;19.884;2024-01-07T07:25:01;231.10;2252.80
55329;DHT22;41205;44.264;19.884;2024-01-07T07:27:27;231.10;2252.80
55329;DHT22;41205;44.264;19.884;2024-01-07T07:29:53;231.10;2252.80
55329;DHT22;41205;44.264;19.884;2024-01-07T07:32:19;231.00;2252.80
55329;DHT22;41205;44.264;19.884;2024-01-07T07:34:45;230.90;2252.80
55329;DHT22;41205;44.264;19.884;2024-01-07T07:37:12;230.90;2252.80
55329;DHT22;41205;44.264;19.884;2024-01-07T07:39:38;231.10;2201.60
55329;DHT22;41205;44.264;19.884;2024-01-07T07:42:04;230.90;2252.80
55329;DHT22;41205;44.264;19.884;2024-01-07T07:44:30;230.90;2252.80
55329;DHT22;41205;44.264;19.884;2024-01-07T07:46:56;231.00;2252.80
55329;DHT22;41205;44.264;19.884;2024-01-07T07:49:22;231.00;2252.80
55329;DHT22;41205;44.264;19.884;2024-01-07T07:51:47;231.10;2252.80
55329;DHT22;41205;44.264;19.884;2024-01-07T07:54:13;231.10;2252.80
55329;DHT22;41205;44.264;19.884;2024-01-07T07:56:39;231.10;2252.80
55329;DHT22;41205;44.264;19.884;2024-01-07T07:59:05;231.20;2252.80
55329;DHT22;41205;44.264;19.884;2024-01-07T08:01:30;231.30;2252.80
55329;DHT22;41205;44.264;19.884;2024-01-07T08:03:56;256.00;2252.80
55329;DHT22;41205;44.264;19.884;2024-01-07T08:06:22;231.30;2252.80
55329;DHT22;41205;44.264;19.884;2024-01-07T08:08:48;256.10;2252.80
55329;DHT22;41205;44.264;19.884;2024-01-07T08:11:13;256.10;2252.80
55329;DHT22;41205;44.264;19.884;2024-01-07T08:13:39;256.10;2252.80
55329;DHT22;41205;44.264;19.884;2024-01-07T08:16:05;256.10;2252.80
55329;DHT22;41205;44.264;19.884;2024-01-07T08:18:32;256.10;2252.80
55329;DHT22;41205;44.264;19.884;2024-01-07T08:20:58;256.20;2252.80
55329;DHT22;41205;44.264;19.884;2024-01-07T08:23:24;256.20;2252.80
55329;DHT22;41205;44.264;19.884;2024-01-07T08:25:50;256.40;2252.80
55329;DHT22;41205;44.264;19.884;2024-01-07T08:28:19;256.50;2252.80
55329;DHT22;41205;44.264;19.884;2024-01-07T08:30:46;256.70;2252.80
55329;DHT22;41205;44.264;19.884;2024-01-07T08:33:12;256.60;2252.80
55329;DHT22;41205;44.264;19.884;2024-01-07T08:35:38;256.80;2252.80
55329;DHT22;41205;44.264;19.884;2024-01-07T08:38:03;256.90;2252.80
55329;DHT22;41205;44.264;19.884;2024-01-07T08:40:31;256.90;2252.80
55329;DHT22;41205;44.264;19.884;2024-01-07T08:42:56;281.60;2278.40
55329;DHT22;41205;44.264;19.884;2024-01-07T08:45:22;281.70;2278.40
55329;DHT22;41205;44.264;19.884;2024-01-07T08:47:48;281.70;2278.40
55329;DHT22;41205;44.264;19.884;2024-01-07T08:50:14;281.70;2278.40
55329;DHT22;41205;44.264;19.884;2024-01-07T08:52:40;282.00;2278.40
55329;DHT22;41205;44.264;19.884;2024-01-07T08:55:06;282.00;2278.40
55329;DHT22;41205;44.264;19.884;2024-01-07T08:57:36;281.90;2278.40
55329;DHT22;41205;44.264;19.884;2024-01-07T09:00:02;281.80;2278.40
55329;DHT22;41205;44.264;19.884;2024-01-07T09:02:28;256.80;2252.80
55329;DHT22;41205;44.264;19.884;2024-01-07T09:04:53;281.60;2278.40
55329;DHT22;41205;44.264;19.884;2024-01-07T09:07:19;281.60;2278.40
55329;DHT22;41205;44.264;19.884;2024-01-07T09:09:45;256.90;2252.80
55329;DHT22;41205;44.264;19.884;2024-01-07T09:12:11;256.70;2252.80
55329;DHT22;41205;44.264;19.884;2024-01-07T09:14:39;256.70;2252.80
55329;DHT22;41205;44.264;19.884;2024-01-07T09:17:05;256.70;2252.80
55329;DHT22;41205;44.264;19.884;2024-01-07T09:19:31;256.70;2252.80
55329;DHT22;41205;44.264;19.884;2024-01-07T09:21:57;256.70;2252.80
55329;DHT22;41205;44.264;19.884;2024-01-07T09:24:23;256.70;2252.80
55329;DHT22;41205;44.264;19.884;2024-01-07T09:26:49;256.80;2252.80
55329;DHT22;41205;44.264;19.884;2024-01-07T09:29:14;256.70;2252.80
55329;DHT22;41205;44.264;19.884;2024-01-07T09:31:40;256.70;2252.80
55329;DHT22;41205;44.264;19.884;2024-01-07T09:34:06;256.70;2252.80
55329;DHT22;41205;44.264;19.884;2024-01-07T09:36:35;256.40;2252.80
55329;DHT22;41205;44.264;19.884;2024-01-07T09:39:02;256.40;2252.80
55329;DHT22;41205;44.264;19.884;2024-01-07T09:41:30;256.40;2252.80
55329;DHT22;41205;44.264;19.884;2024-01-07T09:43:56;256.40;2252.80
55329;DHT22;41205;44.264;19.884;2024-01-07T09:46:24;256.40;2252.80
55329;DHT22;41205;44.264;19.884;2024-01-07T09:48:50;256.30;2252.80
55329;DHT22;41205;44.264;19.884;2024-01-07T09:51:21;256.30;2252.80
55329;DHT22;41205;44.264;19.884;2024-01-07T09:53:48;256.10;2252.80
55329;DHT22;41205;44.264;19.884;2024-01-07T09:56:20;256.00;2252.80
55329;DHT22;41205;44.264;19.884;2024-01-07T09:58:48;231.30;2252.80
55329;DHT22;41205;44.264;19.884;2024-01-07T10:01:18;256.00;2252.80
55329;DHT22;41205;44.264;19.884;2024-01-07T10:03:44;256.20;2252.80
55329;DHT22;41205;44.264;19.884;2024-01-07T10:06:13;256.10;2252.80
55329;DHT22;41205;44.264;19.884;2024-01-07T10:08:39;256.20;2252.80
55329;DHT22;41205;44.264;19.884;2024-01-07T10:11:06;256.20;2252.80
55329;DHT22;41205;44.264;19.884;2024-01-07T10:13:34;256.30;2252.80
55329;DHT22;41205;44.264;19.884;2024-01-07T10:16:00;256.30;2252.80
55329;DHT22;41205;44.264;19.884;2024-01-07T10:18:27;256.40;2252.80
55329;DHT22;41205;44.264;19.884;2024-01-07T10:20:53;256.40;2252.80
55329;DHT22;41205;44.264;19.884;2024-01-07T10:23:20;256.50;2252.80
55329;DHT22;41205;44.264;19.884;2024-01-07T10:25:46;256.40;2252.80
55329;DHT22;41205;44.264;19.884;2024-01-07T10:28:13;256.30;2252.80
55329;DHT22;41205;44.264;19.884;2024-01-07T10:30:39;256.40;2252.80
55329;DHT22;41205;44.264;19.884;2024-01-07T10:33:07;256.30;2252.80
55329;DHT22;41205;44.264;19.884;2024-01-07T10:35:35;256.30;2252.80
55329;DHT22;41205;44.264;19.884;2024-01-07T10:38:02;256.20;2252.80
55329;DHT22;41205;44.264;19.884;2024-01-07T10:40:29;256.20;2252.80
55329;DHT22;41205;44.264;19.884;2024-01-07T10:42:55;256.30;2252.80
55329;DHT22;41205;44.264;19.884;2024-01-07T10:45:22;256.20;2252.80
55329;DHT22;41205;44.264;19.884;2024-01-07T10:47:51;256.40;2252.80
55329;DHT22;41205;44.264;19.884;2024-01-07T10:50:20;256.20;2252.80
55329;DHT22;41205;44.264;19.884;2024-01-07T10:52:55;256.20;2252.80
55329;DHT22;41205;44.264;19.884;2024-01-07T10:55:23;256.20;2252.80
55329;DHT22;41205;44.264;19.884;2024-01-07T10:57:53;256.30;2252.80
55329;DHT22;41205;44.264;19.884;2024-01-07T11:00:21;256.20;2252.80
55329;DHT22;41205;44.264;19.884;2024-01-07T11:03:09;256.10;2252.80
55329;DHT22;41205;44.264;19.884;2024-01-07T11:08:37;256.10;2252.80
55329;DHT22;41205;44.264;19.884;2024-01-07T11:11:09;256.20;2252.80
55329;DHT22;41205;44.264;19.884;2024-01-07T11:13:38;256.20;2252.80
55329;DHT22;41205;44.264;19.884;2024-01-07T11:16:08;256.10;2252.80
55329;DHT22;41205;44.264;19.884;2024-01-07T11:18:55;256.10;2252.80
55329;DHT22;41205;44.264;19.884;2024-01-07T11:21:21;256.10;2252.80
55329;DHT22;41205;44.264;19.884;2024-01-07T11:23:47;256.30;2252.80
55329;DHT22;41205;44.264;19.884;2024-01-07T11:26:13;256.20;2252.80
55329;DHT22;41205;44.264;19.884;2024-01-07T11:28:53;256.20;2252.80
55329;DHT22;41205;44.264;19.884;2024-01-07T11:31:21;256.20;2252.80
55329;DHT22;41205;44.264;19.884;2024-01-07T11:33:49;256.20;2252.80
55329;DHT22;41205;44.264;19.884;2024-01-07T11:36:18;256.10;2252.80
55329;DHT22;41205;44.264;19.884;2024-01-07T11:38:48;256.20;2252.80
55329;DHT22;41205;44.264;19.884;2024-01-07T11:41:15;256.20;2252.80
55329;DHT22;41205;44.264;19.884;2024-01-07T11:43:58;256.10;2252.80
55329;DHT22;41205;44.264;19.884;2024-01-07T11:46:28;256.20;2252.80
55329;DHT22;41205;44.264;19.884;2024-01-07T11:48:57;256.30;2252.80
55329;DHT22;41205;44.264;19.884;2024-01-07T11:51:31;256.40;2252.80
55329;DHT22;41205;44.264;19.884;2024-01-07T11:54:00;256.40;2252.80
55329;DHT22;41205;44.264;19.884;2024-01-07T11:56:27;256.40;2252.80
55329;DHT22;41205;44.264;19.884;2024-01-07T12:02:16;256.70;2252.80
55329;DHT22;41205;44.264;19.884;2024-01-07T12:04:42;256.60;2252.80
55329;DHT22;41205;44.264;19.884;2024-01-07T12:07:08;256.60;2252.80
55329;DHT22;41205;44.264;19.884;2024-01-07T12:09:36;256.60;2252.80
55329;DHT22;41205;44.264;19.884;2024-01-07T12:12:02;256.70;2252.80
55329;DHT22;41205;44.264;19.884;2024-01-07T12:18:00;256.80;2252.80
55329;DHT22;41205;44.264;19.884;2024-01-07T12:20:27;256.80;2252.80
55329;DHT22;41205;44.264;19.884;2024-01-07T12:23:05;256.60;2252.80
55329;DHT22;41205;44.264;19.884;2024-01-07T12:25:31;256.50;2252.80
55329;DHT22;41205;44.264;19.884;2024-01-07T12:27:57;256.70;2252.80
55329;DHT22;41205;44.264;19.884;2024-01-07T12:33:47;256.80;2252.80
55329;DHT22;41205;44.264;19.884;2024-01-07T12:36:13;281.60;2278.40
55329;DHT22;41205;44.264;19.884;2024-01-07T12:38:38;256.80;2252.80
55329;DHT22;41205;44.264;19.884;2024-01-07T12:41:05;256.80;2252.80
55329;DHT22;41205;44.264;19.884;2024-01-07T12:43:31;256.90;2252.80
55329;DHT22;41205;44.264;19.884;2024-01-07T12:45:56;256.90;2252.80
55329;DHT22;41205;44.264;19.884;2024-01-07T12:48:26;256.90;2252.80
55329;DHT22;41205;44.264;19.884;2024-01-07T12:50:52;256.90;2252.80
55329;DHT22;41205;44.264;19.884;2024-01-07T12:53:18;256.80;2252.80
55329;DHT22;41205;44.264;19.884;2024-01-07T12:55:44;256.90;2252.80
55329;DHT22;41205;44.264;19.884;2024-01-07T12:58:10;256.90;2252.80
55329;DHT22;41205;44.264;19.884;2024-01-07T13:03:57;256.40;2252.80
55329;DHT22;41205;44.264;19.884;2024-01-07T13:06:24;256.30;2252.80
55329;DHT22;41205;44.264;19.884;2024-01-07T13:08:50;256.40;2252.80
55329;DHT22;41205;44.264;19.884;2024-01-07T13:11:16;256.50;2252.80
55329;DHT22;41205;44.264;19.884;2024-01-07T13:13:42;256.40;2252.80
55329;DHT22;41205;44.264;19.884;2024-01-07T13:16:07;256.30;2252.80
55329;DHT22;41205;44.264;19.884;2024-01-07T13:18:33;256.40;2252.80
55329;DHT22;41205;44.264;19.884;2024-01-07T13:20:59;256.30;2252.80
55329;DHT22;41205;44.264;19.884;2024-01-07T13:23:25;256.20;2252.80
55329;DHT22;41205;44.264;19.884;2024-01-07T13:25:51;256.10;2252.80
55329;DHT22;41205;44.264;19.884;2024-01-07T13:28:17;256.00;2252.80
55329;DHT22;41205;44.264;19.884;2024-01-07T13:34:06;231.30;2252.80
55329;DHT22;41205;44.264;19.884;2024-01-07T13:36:32;256.10;2252.80
55329;DHT22;41205;44.264;19.884;2024-01-07T13:38:58;231.30;2252.80
55329;DHT22;41205;44.264;19.884;2024-01-07T13:41:23;256.00;2252.80
55329;DHT22;41205;44.264;19.884;2024-01-07T13:43:50;256.00;2252.80
55329;DHT22;41205;44.264;19.884;2024-01-07T13:46:16;231.30;2252.80
55329;DHT22;41205;44.264;19.884;2024-01-07T13:48:42;231.30;2252.80
55329;DHT22;41205;44.264;19.884;2024-01-07T13:51:09;256.00;2252.80
55329;DHT22;41205;44.264;19.884;2024-01-07T13:53:35;231.30;2252.80
55329;DHT22;41205;44.264;19.884;2024-01-07T13:56:01;256.00;2252.80
55329;DHT22;41205;44.264;19.884;2024-01-07T13:58:27;231.30;2252.80
55329;DHT22;41205;44.264;19.884;2024-01-07T14:00:52;256.10;2252.80
55329;DHT22;41205;44.264;19.884;2024-01-07T14:03:18;256.10;2252.80
55329;DHT22;41205;44.264;19.884;2024-01-07T14:05:46;256.10;2252.80
55329;DHT22;41205;44.264;19.884;2024-01-07T14:08:14;256.00;2252.80
55329;DHT22;41205;44.264;19.884;2024-01-07T14:10:40;231.20;2252.80
55329;DHT22;41205;44.264;19.884;2024-01-07T14:13:05;231.10;2252.80
55329;DHT22;41205;44.264;19.884;2024-01-07T14:15:32;231.30;2252.80
55329;DHT22;41205;44.264;19.884;2024-01-07T14:17:58;231.20;2252.80
55329;DHT22;41205;44.264;19.884;2024-01-07T14:20:23;256.00;2252.80
55329;DHT22;41205;44.264;19.884;2024-01-07T14:22:49;256.00;2252.80
55329;DHT22;41205;44.264;19.884;2024-01-07T14:25:15;231.20;2252.80
55329;DHT22;41205;44.264;19.884;2024-01-07T14:27:42;231.10;2252.80
55329;DHT22;41205;44.264;19.884;2024-01-07T14:30:09;231.10;2252.80
55329;DHT22;41205;44.264;19.884;2024-01-07T14:32:34;231.00;2252.80
55329;DHT22;41205;44.264;19.884;2024-01-07T14:35:02;230.90;2252.80
55329;DHT22;41205;44.264;19.884;2024-01-07T14:37:28;230.90;2252.80
55329;DHT22;41205;44.264;19.884;2024-01-07T14:39:54;230.80;2252.80
55329;DHT22;41205;44.264;19.884;2024-01-07T14:42:20;230.90;2252.80
55329;DHT22;41205;44.264;19.884;2024-01-07T14:44:46;231.00;2252.80
55329;DHT22;41205;44.264;19.884;2024-01-07T14:47:11;231.10;2252.80
55329;DHT22;41205;44.264;19.884;2024-01-07T14:49:37;231.00;2252.80
55329;DHT22;41205;44.264;19.884;2024-01-07T14:52:03;231.00;2252.80